sensor_id;sensor_type;location;lat;lon;timestamp;temperature;humidity
24800;DHT22;12897;50.812;4.430;2023-03-04T00:00:23;6.20;99.90
24800;DHT22;12897;50.812;4.430;2023-03-04T00:02:51;6.30;99.90
24800;DHT22;12897;50.812;4.430;2023-03-04T00:05:18;6.40;99.90
24800;DHT22;12897;50.812;4.430;2023-03-04T00:07:46;6.30;99.90
24800;DHT22;12897;50.812;4.430;2023-03-04T00:10:14;6.30;99.90
24800;DHT22;12897;50.812;4.430;2023-03-04T00:12:41;6.30;99.90
24800;DHT22;12897;50.812;4.430;2023-03-04T00:15:09;6.30;99.90
24800;DHT22;12897;50.812;4.430;2023-03-04T00:17:37;6.30;99.90
24800;DHT22;12897;50.812;4.430;2023-03-04T00:20:05;6.40;99.90
24800;DHT22;12897;50.812;4.430;2023-03-04T00:22:33;6.40;99.90
24800;DHT22;12897;50.812;4.430;2023-03-04T00:25:00;6.30;99.90
24800;DHT22;12897;50.812;4.430;2023-03-04T00:27:28;6.40;99.90
24800;DHT22;12897;50.812;4.430;2023-03-04T00:29:56;6.40;99.90
24800;DHT22;12897;50.812;4.430;2023-03-04T00:32:24;6.30;99.90
24800;DHT22;12897;50.812;4.430;2023-03-04T00:34:51;6.30;99.90
24800;DHT22;12897;50.812;4.430;2023-03-04T00:37:19;6.30;99.90
24800;DHT22;12897;50.812;4.430;2023-03-04T00:39:46;6.20;99.90
24800;DHT22;12897;50.812;4.430;2023-03-04T00:42:14;6.10;99.90
24800;DHT22;12897;50.812;4.430;2023-03-04T00:44:41;6.00;99.90
24800;DHT22;12897;50.812;4.430;2023-03-04T00:47:09;6.10;99.90
24800;DHT22;12897;50.812;4.430;2023-03-04T00:49:36;6.20;99.90
24800;DHT22;12897;50.812;4.430;2023-03-04T00:52:04;6.20;99.90
24800;DHT22;12897;50.812;4.430;2023-03-04T00:54:31;6.20;99.90
24800;DHT22;12897;50.812;4.430;2023-03-04T00:56:59;6.40;99.90
24800;DHT22;12897;50.812;4.430;2023-03-04T00:59:26;6.40;99.90
24800;DHT22;12897;50.812;4.430;2023-03-04T01:01:54;6.50;99.90
24800;DHT22;12897;50.812;4.430;2023-03-04T01:04:21;6.60;99.90
24800;DHT22;12897;50.812;4.430;2023-03-04T01:06:49;6.60;99.90
24800;DHT22;12897;50.812;4.430;2023-03-04T01:09:16;6.50;99.90
24800;DHT22;12897;50.812;4.430;2023-03-04T01:11:44;6.60;99.90
24800;DHT22;12897;50.812;4.430;2023-03-04T01:14:11;6.70;99.90
24800;DHT22;12897;50.812;4.430;2023-03-04T01:16:39;6.60;99.90
24800;DHT22;12897;50.812;4.430;2023-03-04T01:19:06;6.50;99.90
24800;DHT22;12897;50.812;4.430;2023-03-04T01:21:34;6.60;99.90
24800;DHT22;12897;50.812;4.430;2023-03-04T01:24:01;6.70;99.90
24800;DHT22;12897;50.812;4.430;2023-03-04T01:26:29;6.70;99.90
24800;DHT22;12897;50.812;4.430;2023-03-04T01:28:57;6.70;99.90
24800;DHT22;12897;50.812;4.430;2023-03-04T01:31:24;6.70;99.90
24800;DHT22;12897;50.812;4.430;2023-03-04T01:33:52;6.60;99.90
24800;DHT22;12897;50.812;4.430;2023-03-04T01:36:19;6.60;99.90
24800;DHT22;12897;50.812;4.430;2023-03-04T01:38:47;6.70;99.90
24800;DHT22;12897;50.812;4.430;2023-03-04T01:41:16;6.70;99.90
24800;DHT22;12897;50.812;4.430;2023-03-04T01:43:45;6.70;99.90
24800;DHT22;12897;50.812;4.430;2023-03-04T01:46:12;6.60;99.90
24800;DHT22;12897;50.812;4.430;2023-03-04T01:48:43;6.60;99.90
24800;DHT22;12897;50.812;4.430;2023-03-04T01:51:13;6.60;99.90
24800;DHT22;12897;50.812;4.430;2023-03-04T01:53:41;6.70;99.90
24800;DHT22;12897;50.812;4.430;2023-03-04T01:56:18;6.50;99.90
24800;DHT22;12897;50.812;4.430;2023-03-04T01:58:49;6.30;99.90
24800;DHT22;12897;50.812;4.430;2023-03-04T02:01:14;6.40;99.90
24800;DHT22;12897;50.812;4.430;2023-03-04T02:03:41;6.50;99.90
24800;DHT22;12897;50.812;4.430;2023-03-04T02:06:09;6.60;99.90
24800;DHT22;12897;50.812;4.430;2023-03-04T02:08:37;6.60;99.90
24800;DHT22;12897;50.812;4.430;2023-03-04T02:11:04;6.90;99.90
24800;DHT22;12897;50.812;4.430;2023-03-04T02:13:32;6.90;99.90
24800;DHT22;12897;50.812;4.430;2023-03-04T02:16:01;7.00;99.90
24800;DHT22;12897;50.812;4.430;2023-03-04T02:18:28;6.90;99.90
24800;DHT22;12897;50.812;4.430;2023-03-04T02:24:30;6.90;99.90
24800;DHT22;12897;50.812;4.430;2023-03-04T02:28:47;6.90;99.90
24800;DHT22;12897;50.812;4.430;2023-03-04T02:31:22;7.00;99.90
24800;DHT22;12897;50.812;4.430;2023-03-04T02:33:50;6.90;99.90
24800;DHT22;12897;50.812;4.430;2023-03-04T02:36:18;6.90;99.90
24800;DHT22;12897;50.812;4.430;2023-03-04T02:38:47;6.90;99.90
24800;DHT22;12897;50.812;4.430;2023-03-04T02:41:16;6.90;99.90
24800;DHT22;12897;50.812;4.430;2023-03-04T02:43:48;7.00;99.90
24800;DHT22;12897;50.812;4.430;2023-03-04T02:46:14;6.90;99.90
24800;DHT22;12897;50.812;4.430;2023-03-04T02:48:42;7.00;99.90
24800;DHT22;12897;50.812;4.430;2023-03-04T02:51:09;6.90;99.90
24800;DHT22;12897;50.812;4.430;2023-03-04T02:53:37;7.00;99.90
24800;DHT22;12897;50.812;4.430;2023-03-04T02:56:05;7.00;99.90
24800;DHT22;12897;50.812;4.430;2023-03-04T02:58:33;6.90;99.90
24800;DHT22;12897;50.812;4.430;2023-03-04T03:01:00;6.80;99.90
24800;DHT22;12897;50.812;4.430;2023-03-04T03:03:28;6.90;99.90
24800;DHT22;12897;50.812;4.430;2023-03-04T03:05:56;6.90;99.90
24800;DHT22;12897;50.812;4.430;2023-03-04T03:08:23;6.90;99.90
24800;DHT22;12897;50.812;4.430;2023-03-04T03:10:51;6.80;99.90
24800;DHT22;12897;50.812;4.430;2023-03-04T03:13:18;6.90;99.90
24800;DHT22;12897;50.812;4.430;2023-03-04T03:15:46;6.80;99.90
24800;DHT22;12897;50.812;4.430;2023-03-04T03:18:13;6.80;99.90
24800;DHT22;12897;50.812;4.430;2023-03-04T03:20:41;6.60;99.90
24800;DHT22;12897;50.812;4.430;2023-03-04T03:23:08;6.50;99.90
24800;DHT22;12897;50.812;4.430;2023-03-04T03:25:36;6.60;99.90
24800;DHT22;12897;50.812;4.430;2023-03-04T03:28:03;6.70;99.90
24800;DHT22;12897;50.812;4.430;2023-03-04T03:30:31;6.80;99.90
24800;DHT22;12897;50.812;4.430;2023-03-04T03:32:58;6.80;99.90
24800;DHT22;12897;50.812;4.430;2023-03-04T03:35:26;6.80;99.90
24800;DHT22;12897;50.812;4.430;2023-03-04T03:37:54;6.90;99.90
24800;DHT22;12897;50.812;4.430;2023-03-04T03:40:22;6.90;99.90
24800;DHT22;12897;50.812;4.430;2023-03-04T03:42:49;6.90;99.90
24800;DHT22;12897;50.812;4.430;2023-03-04T03:45:17;7.00;99.90
24800;DHT22;12897;50.812;4.430;2023-03-04T03:47:44;7.10;99.90
24800;DHT22;12897;50.812;4.430;2023-03-04T03:50:12;7.00;99.90
24800;DHT22;12897;50.812;4.430;2023-03-04T03:52:39;7.10;99.90
24800;DHT22;12897;50.812;4.430;2023-03-04T03:55:08;7.10;99.90
24800;DHT22;12897;50.812;4.430;2023-03-04T03:57:35;7.20;99.90
24800;DHT22;12897;50.812;4.430;2023-03-04T04:00:04;7.10;99.90
24800;DHT22;12897;50.812;4.430;2023-03-04T04:02:32;6.90;99.90
24800;DHT22;12897;50.812;4.430;2023-03-04T04:04:59;6.90;99.90
24800;DHT22;12897;50.812;4.430;2023-03-04T04:07:27;6.60;99.90
24800;DHT22;12897;50.812;4.430;2023-03-04T04:10:14;6.60;99.90
24800;DHT22;12897;50.812;4.430;2023-03-04T04:12:43;6.70;99.90
24800;DHT22;12897;50.812;4.430;2023-03-04T04:15:11;6.60;99.90
24800;DHT22;12897;50.812;4.430;2023-03-04T04:17:39;6.60;99.90
24800;DHT22;12897;50.812;4.430;2023-03-04T04:20:08;6.60;99.90
24800;DHT22;12897;50.812;4.430;2023-03-04T04:22:35;6.60;99.90
24800;DHT22;12897;50.812;4.430;2023-03-04T04:25:03;6.70;99.90
24800;DHT22;12897;50.812;4.430;2023-03-04T04:27:31;6.60;99.90
24800;DHT22;12897;50.812;4.430;2023-03-04T04:29:58;6.60;99.90
24800;DHT22;12897;50.812;4.430;2023-03-04T04:32:26;6.60;99.90
24800;DHT22;12897;50.812;4.430;2023-03-04T04:34:53;6.80;99.90
24800;DHT22;12897;50.812;4.430;2023-03-04T04:37:21;6.80;99.90
24800;DHT22;12897;50.812;4.430;2023-03-04T04:39:48;6.70;99.90
24800;DHT22;12897;50.812;4.430;2023-03-04T04:42:17;6.70;99.90
24800;DHT22;12897;50.812;4.430;2023-03-04T04:44:44;6.70;99.90
24800;DHT22;12897;50.812;4.430;2023-03-04T04:47:12;6.80;99.90
24800;DHT22;12897;50.812;4.430;2023-03-04T04:49:39;6.80;99.90
24800;DHT22;12897;50.812;4.430;2023-03-04T04:52:07;6.70;99.90
24800;DHT22;12897;50.812;4.430;2023-03-04T04:54:34;6.60;99.90
24800;DHT22;12897;50.812;4.430;2023-03-04T04:57:02;6.70;99.90
24800;DHT22;12897;50.812;4.430;2023-03-04T04:59:29;6.80;99.90
24800;DHT22;12897;50.812;4.430;2023-03-04T05:01:57;6.70;99.90
24800;DHT22;12897;50.812;4.430;2023-03-04T05:04:24;6.60;99.90
24800;DHT22;12897;50.812;4.430;2023-03-04T05:06:52;6.70;99.90
24800;DHT22;12897;50.812;4.430;2023-03-04T05:09:20;6.90;99.90
24800;DHT22;12897;50.812;4.430;2023-03-04T05:11:48;7.00;99.90
24800;DHT22;12897;50.812;4.430;2023-03-04T05:14:16;7.10;99.90
24800;DHT22;12897;50.812;4.430;2023-03-04T05:16:43;7.10;99.90
24800;DHT22;12897;50.812;4.430;2023-03-04T05:19:11;7.10;99.90
24800;DHT22;12897;50.812;4.430;2023-03-04T05:21:38;7.10;99.90
24800;DHT22;12897;50.812;4.430;2023-03-04T05:24:06;7.20;99.90
24800;DHT22;12897;50.812;4.430;2023-03-04T05:26:34;7.20;99.90
24800;DHT22;12897;50.812;4.430;2023-03-04T05:29:02;7.20;99.90
24800;DHT22;12897;50.812;4.430;2023-03-04T05:31:30;7.30;99.90
24800;DHT22;12897;50.812;4.430;2023-03-04T05:33:58;7.30;99.90
24800;DHT22;12897;50.812;4.430;2023-03-04T05:36:25;7.30;99.90
24800;DHT22;12897;50.812;4.430;2023-03-04T05:38:53;7.30;99.90
24800;DHT22;12897;50.812;4.430;2023-03-04T05:41:20;7.30;99.90
24800;DHT22;12897;50.812;4.430;2023-03-04T05:43:49;7.30;99.90
24800;DHT22;12897;50.812;4.430;2023-03-04T05:46:17;7.30;99.90
24800;DHT22;12897;50.812;4.430;2023-03-04T05:48:48;7.10;99.90
24800;DHT22;12897;50.812;4.430;2023-03-04T05:51:15;7.20;99.90
24800;DHT22;12897;50.812;4.430;2023-03-04T05:53:43;7.20;99.90
24800;DHT22;12897;50.812;4.430;2023-03-04T05:56:14;7.20;99.90
24800;DHT22;12897;50.812;4.430;2023-03-04T05:58:42;7.20;99.90
24800;DHT22;12897;50.812;4.430;2023-03-04T06:01:10;7.30;99.90
24800;DHT22;12897;50.812;4.430;2023-03-04T06:03:38;7.30;99.90
24800;DHT22;12897;50.812;4.430;2023-03-04T06:06:05;7.00;99.90
24800;DHT22;12897;50.812;4.430;2023-03-04T06:08:33;7.00;99.90
24800;DHT22;12897;50.812;4.430;2023-03-04T06:11:00;6.90;99.90
24800;DHT22;12897;50.812;4.430;2023-03-04T06:13:29;6.70;99.90
24800;DHT22;12897;50.812;4.430;2023-03-04T06:15:58;6.60;99.90
24800;DHT22;12897;50.812;4.430;2023-03-04T06:18:27;6.60;99.90
24800;DHT22;12897;50.812;4.430;2023-03-04T06:20:59;6.60;99.90
24800;DHT22;12897;50.812;4.430;2023-03-04T06:23:27;6.60;99.90
24800;DHT22;12897;50.812;4.430;2023-03-04T06:25:56;6.60;99.90
24800;DHT22;12897;50.812;4.430;2023-03-04T06:28:24;6.60;99.90
24800;DHT22;12897;50.812;4.430;2023-03-04T06:30:54;6.60;99.90
24800;DHT22;12897;50.812;4.430;2023-03-04T06:33:22;6.70;99.90
24800;DHT22;12897;50.812;4.430;2023-03-04T06:35:52;6.60;99.90
24800;DHT22;12897;50.812;4.430;2023-03-04T06:38:20;6.60;99.90
24800;DHT22;12897;50.812;4.430;2023-03-04T06:40:48;6.60;99.90
24800;DHT22;12897;50.812;4.430;2023-03-04T06:43:16;6.60;99.90
24800;DHT22;12897;50.812;4.430;2023-03-04T06:45:43;6.60;99.90
24800;DHT22;12897;50.812;4.430;2023-03-04T06:48:11;6.80;99.90
24800;DHT22;12897;50.812;4.430;2023-03-04T06:50:42;6.90;99.90
24800;DHT22;12897;50.812;4.430;2023-03-04T06:53:09;6.90;99.90
24800;DHT22;12897;50.812;4.430;2023-03-04T06:55:36;7.10;99.90
24800;DHT22;12897;50.812;4.430;2023-03-04T06:58:04;7.10;99.90
24800;DHT22;12897;50.812;4.430;2023-03-04T07:00:31;7.10;99.90
24800;DHT22;12897;50.812;4.430;2023-03-04T07:02:59;7.10;99.90
24800;DHT22;12897;50.812;4.430;2023-03-04T07:05:27;7.10;99.90
24800;DHT22;12897;50.812;4.430;2023-03-04T07:07:54;7.10;99.90
24800;DHT22;12897;50.812;4.430;2023-03-04T07:10:22;7.00;99.90
24800;DHT22;12897;50.812;4.430;2023-03-04T07:12:49;7.10;99.90
24800;DHT22;12897;50.812;4.430;2023-03-04T07:15:17;7.30;99.90
24800;DHT22;12897;50.812;4.430;2023-03-04T07:17:45;7.30;99.90
24800;DHT22;12897;50.812;4.430;2023-03-04T07:20:12;7.10;99.90
24800;DHT22;12897;50.812;4.430;2023-03-04T07:22:41;7.10;99.90
24800;DHT22;12897;50.812;4.430;2023-03-04T07:25:10;7.00;99.90
24800;DHT22;12897;50.812;4.430;2023-03-04T07:27:38;7.00;99.90
24800;DHT22;12897;50.812;4.430;2023-03-04T07:30:08;6.90;99.90
24800;DHT22;12897;50.812;4.430;2023-03-04T07:32:35;6.90;99.90
24800;DHT22;12897;50.812;4.430;2023-03-04T07:35:06;6.90;99.90
24800;DHT22;12897;50.812;4.430;2023-03-04T07:37:39;7.00;99.90
24800;DHT22;12897;50.812;4.430;2023-03-04T07:40:09;7.10;99.90
24800;DHT22;12897;50.812;4.430;2023-03-04T07:42:47;7.10;99.90
24800;DHT22;12897;50.812;4.430;2023-03-04T07:45:12;7.10;99.90
24800;DHT22;12897;50.812;4.430;2023-03-04T07:47:42;6.90;99.90
24800;DHT22;12897;50.812;4.430;2023-03-04T07:50:12;7.10;99.90
24800;DHT22;12897;50.812;4.430;2023-03-04T07:52:45;7.10;99.90
24800;DHT22;12897;50.812;4.430;2023-03-04T07:55:14;7.00;99.90
24800;DHT22;12897;50.812;4.430;2023-03-04T07:57:45;6.90;99.90
24800;DHT22;12897;50.812;4.430;2023-03-04T08:00:21;7.00;99.90
24800;DHT22;12897;50.812;4.430;2023-03-04T08:02:49;6.90;99.90
24800;DHT22;12897;50.812;4.430;2023-03-04T08:05:20;6.80;99.90
24800;DHT22;12897;50.812;4.430;2023-03-04T08:07:51;6.70;99.90
24800;DHT22;12897;50.812;4.430;2023-03-04T08:10:25;6.70;99.90
24800;DHT22;12897;50.812;4.430;2023-03-04T08:15:27;6.80;99.90
24800;DHT22;12897;50.812;4.430;2023-03-04T08:17:57;6.80;99.90
24800;DHT22;12897;50.812;4.430;2023-03-04T08:20:32;6.90;99.90
24800;DHT22;12897;50.812;4.430;2023-03-04T08:23:00;6.90;99.90
24800;DHT22;12897;50.812;4.430;2023-03-04T08:25:31;7.00;99.90
24800;DHT22;12897;50.812;4.430;2023-03-04T08:27:59;7.00;99.90
24800;DHT22;12897;50.812;4.430;2023-03-04T08:30:28;6.90;99.90
24800;DHT22;12897;50.812;4.430;2023-03-04T08:33:00;7.00;99.90
24800;DHT22;12897;50.812;4.430;2023-03-04T08:35:29;6.80;99.90
24800;DHT22;12897;50.812;4.430;2023-03-04T08:37:58;6.90;99.90
24800;DHT22;12897;50.812;4.430;2023-03-04T08:40:33;6.90;99.90
24800;DHT22;12897;50.812;4.430;2023-03-04T08:43:02;6.90;99.90
24800;DHT22;12897;50.812;4.430;2023-03-04T08:45:33;7.00;99.90
24800;DHT22;12897;50.812;4.430;2023-03-04T08:48:01;7.10;99.90
24800;DHT22;12897;50.812;4.430;2023-03-04T08:50:29;7.30;99.90
24800;DHT22;12897;50.812;4.430;2023-03-04T08:52:58;7.40;99.90
24800;DHT22;12897;50.812;4.430;2023-03-04T08:55:26;7.40;99.90
24800;DHT22;12897;50.812;4.430;2023-03-04T08:57:53;7.40;99.90
24800;DHT22;12897;50.812;4.430;2023-03-04T09:00:21;7.50;99.90
24800;DHT22;12897;50.812;4.430;2023-03-04T09:02:49;7.50;99.90
24800;DHT22;12897;50.812;4.430;2023-03-04T09:05:17;7.50;99.90
24800;DHT22;12897;50.812;4.430;2023-03-04T09:07:46;7.60;99.90
24800;DHT22;12897;50.812;4.430;2023-03-04T09:10:13;7.50;99.90
24800;DHT22;12897;50.812;4.430;2023-03-04T09:12:41;7.50;99.90
24800;DHT22;12897;50.812;4.430;2023-03-04T09:15:09;7.70;99.90
24800;DHT22;12897;50.812;4.430;2023-03-04T09:17:37;7.60;99.90
24800;DHT22;12897;50.812;4.430;2023-03-04T09:20:05;7.80;99.90
24800;DHT22;12897;50.812;4.430;2023-03-04T09:22:36;7.80;99.90
24800;DHT22;12897;50.812;4.430;2023-03-04T09:25:05;7.70;99.90
24800;DHT22;12897;50.812;4.430;2023-03-04T09:27:33;7.60;99.90
24800;DHT22;12897;50.812;4.430;2023-03-04T09:30:01;7.40;99.90
24800;DHT22;12897;50.812;4.430;2023-03-04T09:32:30;7.40;99.90
24800;DHT22;12897;50.812;4.430;2023-03-04T09:34:57;7.60;99.90
24800;DHT22;12897;50.812;4.430;2023-03-04T09:37:27;7.70;99.90
24800;DHT22;12897;50.812;4.430;2023-03-04T09:39:54;7.60;99.90
24800;DHT22;12897;50.812;4.430;2023-03-04T09:42:36;7.60;99.90
24800;DHT22;12897;50.812;4.430;2023-03-04T09:44:57;7.60;99.90
24800;DHT22;12897;50.812;4.430;2023-03-04T09:47:25;7.70;99.90
24800;DHT22;12897;50.812;4.430;2023-03-04T09:50:06;7.50;99.90
24800;DHT22;12897;50.812;4.430;2023-03-04T09:55:04;7.70;99.90
24800;DHT22;12897;50.812;4.430;2023-03-04T09:57:39;7.70;99.90
24800;DHT22;12897;50.812;4.430;2023-03-04T10:00:16;7.80;99.90
24800;DHT22;12897;50.812;4.430;2023-03-04T10:06:05;7.50;99.90
24800;DHT22;12897;50.812;4.430;2023-03-04T10:11:02;7.80;99.90
24800;DHT22;12897;50.812;4.430;2023-03-04T10:14:19;8.10;99.90
24800;DHT22;12897;50.812;4.430;2023-03-04T10:16:10;8.20;99.90
24800;DHT22;12897;50.812;4.430;2023-03-04T10:21:29;8.00;99.90
24800;DHT22;12897;50.812;4.430;2023-03-04T10:24:00;8.20;99.90
24800;DHT22;12897;50.812;4.430;2023-03-04T10:26:29;8.40;99.90
24800;DHT22;12897;50.812;4.430;2023-03-04T10:28:59;8.50;99.90
24800;DHT22;12897;50.812;4.430;2023-03-04T10:31:45;8.70;99.90
24800;DHT22;12897;50.812;4.430;2023-03-04T10:34:16;8.50;99.90
24800;DHT22;12897;50.812;4.430;2023-03-04T10:36:47;8.40;99.90
24800;DHT22;12897;50.812;4.430;2023-03-04T10:39:31;8.10;99.90
24800;DHT22;12897;50.812;4.430;2023-03-04T10:42:02;7.90;99.90
24800;DHT22;12897;50.812;4.430;2023-03-04T10:44:31;7.90;99.90
24800;DHT22;12897;50.812;4.430;2023-03-04T10:47:00;8.00;99.90
24800;DHT22;12897;50.812;4.430;2023-03-04T10:49:28;8.00;99.90
24800;DHT22;12897;50.812;4.430;2023-03-04T10:52:14;8.20;99.90
24800;DHT22;12897;50.812;4.430;2023-03-04T10:54:50;8.20;99.90
24800;DHT22;12897;50.812;4.430;2023-03-04T10:57:22;8.10;99.90
24800;DHT22;12897;50.812;4.430;2023-03-04T10:59:56;7.90;99.90
24800;DHT22;12897;50.812;4.430;2023-03-04T11:02:26;7.90;99.90
24800;DHT22;12897;50.812;4.430;2023-03-04T11:05:06;7.80;99.90
24800;DHT22;12897;50.812;4.430;2023-03-04T11:07:40;7.90;99.90
24800;DHT22;12897;50.812;4.430;2023-03-04T11:10:15;8.00;99.90
24800;DHT22;12897;50.812;4.430;2023-03-04T11:12:38;8.10;99.90
24800;DHT22;12897;50.812;4.430;2023-03-04T11:15:17;8.30;99.90
24800;DHT22;12897;50.812;4.430;2023-03-04T11:17:48;8.30;99.90
24800;DHT22;12897;50.812;4.430;2023-03-04T11:23:06;8.20;99.90
24800;DHT22;12897;50.812;4.430;2023-03-04T11:25:37;8.40;99.90
24800;DHT22;12897;50.812;4.430;2023-03-04T11:28:14;8.40;99.90
24800;DHT22;12897;50.812;4.430;2023-03-04T11:38:50;8.00;99.90
24800;DHT22;12897;50.812;4.430;2023-03-04T11:41:24;8.00;99.90
24800;DHT22;12897;50.812;4.430;2023-03-04T11:43:51;8.00;99.90
24800;DHT22;12897;50.812;4.430;2023-03-04T11:46:26;8.00;99.90
24800;DHT22;12897;50.812;4.430;2023-03-04T11:49:01;8.30;99.90
24800;DHT22;12897;50.812;4.430;2023-03-04T11:54:33;8.50;99.90
24800;DHT22;12897;50.812;4.430;2023-03-04T11:57:05;8.80;99.90
24800;DHT22;12897;50.812;4.430;2023-03-04T12:02:35;9.10;99.90
24800;DHT22;12897;50.812;4.430;2023-03-04T12:05:19;9.20;99.90
24800;DHT22;12897;50.812;4.430;2023-03-04T12:10:47;9.30;99.90
24800;DHT22;12897;50.812;4.430;2023-03-04T12:24:19;9.40;99.90
24800;DHT22;12897;50.812;4.430;2023-03-04T12:26:54;9.30;99.90
24800;DHT22;12897;50.812;4.430;2023-03-04T12:37:44;8.70;99.90
24800;DHT22;12897;50.812;4.430;2023-03-04T12:40:37;8.60;99.90
24800;DHT22;12897;50.812;4.430;2023-03-04T12:43:22;8.90;99.90
24800;DHT22;12897;50.812;4.430;2023-03-04T12:48:49;9.30;99.90
24800;DHT22;12897;50.812;4.430;2023-03-04T12:56:40;9.30;99.90
24800;DHT22;12897;50.812;4.430;2023-03-04T12:59:16;9.20;99.90
24800;DHT22;12897;50.812;4.430;2023-03-04T13:01:47;9.10;99.90
24800;DHT22;12897;50.812;4.430;2023-03-04T13:07:17;9.10;99.90
24800;DHT22;12897;50.812;4.430;2023-03-04T13:09:56;9.20;99.90
24800;DHT22;12897;50.812;4.430;2023-03-04T13:12:23;9.20;99.90
24800;DHT22;12897;50.812;4.430;2023-03-04T13:25:46;8.60;99.90
24800;DHT22;12897;50.812;4.430;2023-03-04T13:28:18;8.50;99.90
24800;DHT22;12897;50.812;4.430;2023-03-04T13:36:28;8.70;99.90
24800;DHT22;12897;50.812;4.430;2023-03-04T13:39:20;8.70;99.90
24800;DHT22;12897;50.812;4.430;2023-03-04T13:41:31;8.90;99.90
24800;DHT22;12897;50.812;4.430;2023-03-04T13:44:01;9.00;99.90
24800;DHT22;12897;50.812;4.430;2023-03-04T13:46:40;9.20;99.90
24800;DHT22;12897;50.812;4.430;2023-03-04T13:49:02;9.20;99.90
24800;DHT22;12897;50.812;4.430;2023-03-04T13:54:26;9.20;99.90
24800;DHT22;12897;50.812;4.430;2023-03-04T13:57:18;9.20;99.90
24800;DHT22;12897;50.812;4.430;2023-03-04T13:59:53;9.10;99.90
24800;DHT22;12897;50.812;4.430;2023-03-04T14:02:24;9.10;99.90
24800;DHT22;12897;50.812;4.430;2023-03-04T14:04:59;9.20;99.90
24800;DHT22;12897;50.812;4.430;2023-03-04T14:07:32;9.20;99.90
24800;DHT22;12897;50.812;4.430;2023-03-04T14:12:47;9.30;99.90
24800;DHT22;12897;50.812;4.430;2023-03-04T14:17:53;9.20;99.90
24800;DHT22;12897;50.812;4.430;2023-03-04T14:22:57;9.20;99.90
24800;DHT22;12897;50.812;4.430;2023-03-04T14:25:27;9.10;99.90
24800;DHT22;12897;50.812;4.430;2023-03-04T14:28:15;9.10;99.90
24800;DHT22;12897;50.812;4.430;2023-03-04T14:30:51;9.00;99.90
24800;DHT22;12897;50.812;4.430;2023-03-04T14:33:25;9.10;99.90
24800;DHT22;12897;50.812;4.430;2023-03-04T14:35:58;9.00;99.90
24800;DHT22;12897;50.812;4.430;2023-03-04T14:38:31;9.00;99.90
24800;DHT22;12897;50.812;4.430;2023-03-04T14:41:08;8.90;99.90
24800;DHT22;12897;50.812;4.430;2023-03-04T14:44:01;9.10;99.90
24800;DHT22;12897;50.812;4.430;2023-03-04T14:46:38;9.10;99.90
24800;DHT22;12897;50.812;4.430;2023-03-04T14:49:01;8.90;99.90
24800;DHT22;12897;50.812;4.430;2023-03-04T14:51:48;9.00;99.90
24800;DHT22;12897;50.812;4.430;2023-03-04T14:54:33;9.10;99.90
24800;DHT22;12897;50.812;4.430;2023-03-04T14:59:50;9.00;99.90
24800;DHT22;12897;50.812;4.430;2023-03-04T15:02:29;8.90;99.90
24800;DHT22;12897;50.812;4.430;2023-03-04T15:05:24;9.00;99.90
24800;DHT22;12897;50.812;4.430;2023-03-04T15:07:35;9.00;99.90
24800;DHT22;12897;50.812;4.430;2023-03-04T15:10:06;8.70;99.90
24800;DHT22;12897;50.812;4.430;2023-03-04T15:12:35;8.70;99.90
24800;DHT22;12897;50.812;4.430;2023-03-04T15:18:03;8.60;99.90
24800;DHT22;12897;50.812;4.430;2023-03-04T15:20:31;8.70;99.90
24800;DHT22;12897;50.812;4.430;2023-03-04T15:23:04;8.80;99.90
24800;DHT22;12897;50.812;4.430;2023-03-04T15:25:33;8.70;99.90
24800;DHT22;12897;50.812;4.430;2023-03-04T15:28:02;8.60;99.90
24800;DHT22;12897;50.812;4.430;2023-03-04T15:30:32;8.60;99.90
24800;DHT22;12897;50.812;4.430;2023-03-04T15:33:00;8.60;99.90
24800;DHT22;12897;50.812;4.430;2023-03-04T15:35:30;8.40;99.90
24800;DHT22;12897;50.812;4.430;2023-03-04T15:37:59;8.60;99.90
24800;DHT22;12897;50.812;4.430;2023-03-04T15:40:29;8.80;99.90
24800;DHT22;12897;50.812;4.430;2023-03-04T15:42:59;8.90;99.90
24800;DHT22;12897;50.812;4.430;2023-03-04T15:45:30;8.90;99.90
24800;DHT22;12897;50.812;4.430;2023-03-04T15:47:59;8.80;99.90
24800;DHT22;12897;50.812;4.430;2023-03-04T15:50:39;8.80;99.90
24800;DHT22;12897;50.812;4.430;2023-03-04T15:53:16;8.90;99.90
24800;DHT22;12897;50.812;4.430;2023-03-04T15:55:40;9.10;99.90
24800;DHT22;12897;50.812;4.430;2023-03-04T15:58:10;9.00;99.90
24800;DHT22;12897;50.812;4.430;2023-03-04T16:00:38;8.90;99.90
24800;DHT22;12897;50.812;4.430;2023-03-04T16:03:05;8.90;99.90
24800;DHT22;12897;50.812;4.430;2023-03-04T16:05:37;9.00;99.90
24800;DHT22;12897;50.812;4.430;2023-03-04T16:08:05;8.90;99.90
24800;DHT22;12897;50.812;4.430;2023-03-04T16:10:32;8.80;99.90
24800;DHT22;12897;50.812;4.430;2023-03-04T16:13:00;8.80;99.90
24800;DHT22;12897;50.812;4.430;2023-03-04T16:15:29;8.90;99.90
24800;DHT22;12897;50.812;4.430;2023-03-04T16:17:57;8.90;99.90
24800;DHT22;12897;50.812;4.430;2023-03-04T16:20:27;9.00;99.90
24800;DHT22;12897;50.812;4.430;2023-03-04T16:22:57;9.00;99.90
24800;DHT22;12897;50.812;4.430;2023-03-04T16:25:26;9.20;99.90
24800;DHT22;12897;50.812;4.430;2023-03-04T16:27:55;9.40;99.90
24800;DHT22;12897;50.812;4.430;2023-03-04T16:30:25;9.30;99.90
24800;DHT22;12897;50.812;4.430;2023-03-04T16:32:53;9.20;99.90
24800;DHT22;12897;50.812;4.430;2023-03-04T16:35:22;8.80;99.90
24800;DHT22;12897;50.812;4.430;2023-03-04T16:37:54;8.70;99.90
24800;DHT22;12897;50.812;4.430;2023-03-04T16:40:27;8.60;99.90
24800;DHT22;12897;50.812;4.430;2023-03-04T16:42:56;8.70;99.90
24800;DHT22;12897;50.812;4.430;2023-03-04T16:45:25;8.70;99.90
24800;DHT22;12897;50.812;4.430;2023-03-04T16:47:55;8.60;99.90
24800;DHT22;12897;50.812;4.430;2023-03-04T16:50:25;8.60;99.90
24800;DHT22;12897;50.812;4.430;2023-03-04T16:52:54;8.50;99.90
24800;DHT22;12897;50.812;4.430;2023-03-04T16:55:27;8.40;99.90
24800;DHT22;12897;50.812;4.430;2023-03-04T16:57:56;8.40;99.90
24800;DHT22;12897;50.812;4.430;2023-03-04T17:00:26;8.40;99.90
24800;DHT22;12897;50.812;4.430;2023-03-04T17:02:56;8.50;99.90
24800;DHT22;12897;50.812;4.430;2023-03-04T17:05:28;8.80;99.90
24800;DHT22;12897;50.812;4.430;2023-03-04T17:07:56;8.80;99.90
24800;DHT22;12897;50.812;4.430;2023-03-04T17:10:24;8.70;99.90
24800;DHT22;12897;50.812;4.430;2023-03-04T17:12:51;8.70;99.90
24800;DHT22;12897;50.812;4.430;2023-03-04T17:15:19;8.50;99.90
24800;DHT22;12897;50.812;4.430;2023-03-04T17:17:47;8.40;99.90
24800;DHT22;12897;50.812;4.430;2023-03-04T17:20:17;8.40;99.90
24800;DHT22;12897;50.812;4.430;2023-03-04T17:22:44;8.40;99.90
24800;DHT22;12897;50.812;4.430;2023-03-04T17:25:14;8.40;99.90
24800;DHT22;12897;50.812;4.430;2023-03-04T17:27:41;8.30;99.90
24800;DHT22;12897;50.812;4.430;2023-03-04T17:30:10;8.40;99.90
24800;DHT22;12897;50.812;4.430;2023-03-04T17:32:38;8.40;99.90
24800;DHT22;12897;50.812;4.430;2023-03-04T17:35:07;8.30;99.90
24800;DHT22;12897;50.812;4.430;2023-03-04T17:37:36;8.30;99.90
24800;DHT22;12897;50.812;4.430;2023-03-04T17:40:06;8.20;99.90
24800;DHT22;12897;50.812;4.430;2023-03-04T17:42:36;8.10;99.90